Time;durP1;ratioP1;P1;durP2;ratioP2;P2;SDS_P1;SDS_P2;PMS_P1;PMS_P2;Temp;Humidity;BMP_temperature;BMP_pressure;BME280_temperature;BME280_humidity;BME280_pressure;Samples;Min_cycle;Max_cycle;Signal;HPM_P1;HPM_P2
2023/04/18 00:01:44;;;;;;;6.83;4.83;;;9.00;99.90;;;;;;5039212;28;20177;-80
2023/04/18 00:04:10;;;;;;;7.70;5.77;;;8.90;99.90;;;;;;5038634;28;20288;-80
2023/04/18 00:06:36;;;;;;;7.80;4.73;;;8.90;99.90;;;;;;5039573;28;20212;-79
2023/04/18 00:09:02;;;;;;;8.43;5.23;;;8.90;99.90;;;;;;5039077;28;20543;-79
2023/04/18 00:11:29;;;;;;;7.33;5.10;;;8.90;99.90;;;;;;5039094;28;20580;-80
2023/04/18 00:13:56;;;;;;;6.50;4.80;;;8.90;99.90;;;;;;5039829;28;20690;-80
2023/04/18 00:16:22;;;;;;;7.00;5.27;;;8.90;99.90;;;;;;5039876;28;20172;-81
2023/04/18 00:18:48;;;;;;;9.17;5.40;;;8.90;99.90;;;;;;5039289;28;20183;-79
2023/04/18 00:21:13;;;;;;;10.40;5.43;;;8.90;99.90;;;;;;5040552;28;20168;-80
2023/04/18 00:23:39;;;;;;;7.57;5.27;;;8.80;99.90;;;;;;5038228;28;20192;-80
2023/04/18 00:26:04;;;;;;;7.13;5.00;;;8.80;99.90;;;;;;5038153;28;20191;-80
2023/04/18 00:28:30;;;;;;;7.07;5.53;;;8.70;99.90;;;;;;5038797;28;20180;-80
2023/04/18 00:30:55;;;;;;;7.03;5.07;;;8.80;99.90;;;;;;5039918;28;20183;-81
2023/04/18 00:33:21;;;;;;;7.60;5.63;;;8.80;99.90;;;;;;5039422;28;20639;-79
2023/04/18 00:35:46;;;;;;;9.40;5.40;;;8.70;99.90;;;;;;5039146;28;20176;-78
2023/04/18 00:38:12;;;;;;;9.77;5.47;;;8.70;99.90;;;;;;5035805;28;20180;-80
2023/04/18 00:40:38;;;;;;;7.87;5.83;;;8.70;99.90;;;;;;5038008;28;20187;-79
2023/04/18 00:43:06;;;;;;;9.57;5.73;;;8.60;99.90;;;;;;5038008;28;20176;-79
2023/04/18 00:45:32;;;;;;;11.17;5.70;;;8.60;99.90;;;;;;5039848;28;20176;-80
2023/04/18 00:47:57;;;;;;;12.27;6.37;;;8.60;99.90;;;;;;5039369;28;20183;-79
2023/04/18 00:50:23;;;;;;;8.70;6.47;;;8.60;99.90;;;;;;5039915;28;20195;-79
2023/04/18 00:52:49;;;;;;;7.80;5.63;;;8.60;99.90;;;;;;5039033;28;20200;-79
2023/04/18 00:55:15;;;;;;;8.10;6.23;;;8.60;99.90;;;;;;5040122;28;20631;-81
2023/04/18 00:57:41;;;;;;;7.50;6.17;;;8.60;99.90;;;;;;5040297;28;20536;-80
2023/04/18 01:00:11;;;;;;;10.10;6.13;;;8.60;99.90;;;;;;5039426;28;20545;-79
2023/04/18 01:02:38;;;;;;;9.57;5.80;;;8.50;99.90;;;;;;5039125;28;20187;-80
2023/04/18 01:05:05;;;;;;;8.60;6.20;;;8.50;99.90;;;;;;5038826;28;20227;-79
2023/04/18 01:07:32;;;;;;;8.07;6.00;;;8.50;99.90;;;;;;5039767;28;20176;-79
2023/04/18 01:09:59;;;;;;;8.73;5.67;;;8.40;99.90;;;;;;5039772;28;20263;-79
2023/04/18 01:12:24;;;;;;;7.20;5.57;;;8.40;99.90;;;;;;5040125;28;20208;-79
2023/04/18 01:14:50;;;;;;;8.40;6.17;;;8.40;99.90;;;;;;5041905;28;20226;-79
2023/04/18 01:17:16;;;;;;;8.73;6.40;;;8.40;99.90;;;;;;5054293;28;20184;-79
2023/04/18 01:19:41;;;;;;;11.03;5.50;;;8.30;99.90;;;;;;5056712;28;20187;-79
2023/04/18 01:22:08;;;;;;;8.13;5.90;;;8.30;99.90;;;;;;5055315;28;20236;-79
2023/04/18 01:24:33;;;;;;;14.13;6.20;;;8.30;99.90;;;;;;5037398;28;20203;-79
2023/04/18 01:27:01;;;;;;;10.50;6.30;;;8.30;99.90;;;;;;5038440;28;20184;-80
2023/04/18 01:29:27;;;;;;;7.83;5.87;;;8.30;99.90;;;;;;5037834;28;20168;-79
2023/04/18 01:31:53;;;;;;;8.80;5.80;;;8.20;99.90;;;;;;5037525;28;20227;-79
2023/04/18 01:34:18;;;;;;;9.80;5.83;;;8.20;99.90;;;;;;5036001;28;20635;-79
2023/04/18 01:36:45;;;;;;;8.27;5.87;;;8.20;99.90;;;;;;5037447;28;20268;-80
2023/04/18 01:39:11;;;;;;;10.57;6.20;;;8.20;99.90;;;;;;5037115;28;20184;-80
2023/04/18 01:41:37;;;;;;;8.63;6.00;;;8.10;99.90;;;;;;5036913;28;20651;-78
2023/04/18 01:44:03;;;;;;;8.03;5.60;;;8.00;99.90;;;;;;5037777;28;20200;-80
2023/04/18 01:46:29;;;;;;;9.00;5.60;;;8.10;99.90;;;;;;5036117;28;20246;-79
2023/04/18 01:48:55;;;;;;;9.27;6.33;;;8.10;99.90;;;;;;5037191;28;20172;-79
2023/04/18 01:51:21;;;;;;;8.17;5.73;;;8.00;99.90;;;;;;5037478;28;20637;-80
2023/04/18 01:53:47;;;;;;;8.13;6.07;;;8.00;99.90;;;;;;5037374;28;20219;-79
2023/04/18 01:56:12;;;;;;;8.93;6.10;;;8.00;99.90;;;;;;5035930;28;20184;-79
2023/04/18 01:58:40;;;;;;;7.60;5.47;;;8.00;99.90;;;;;;5036173;28;20584;-79
2023/04/18 02:01:05;;;;;;;7.53;5.83;;;8.00;99.90;;;;;;5035667;28;20246;-80
2023/04/18 02:03:31;;;;;;;7.73;5.50;;;7.90;99.90;;;;;;5037237;28;20579;-80
2023/04/18 02:05:57;;;;;;;7.83;5.30;;;7.90;99.90;;;;;;5036854;28;20179;-79
2023/04/18 02:08:22;;;;;;;6.87;5.47;;;7.90;99.90;;;;;;5035270;28;20674;-80
2023/04/18 02:10:48;;;;;;;8.03;6.20;;;7.80;99.90;;;;;;5035553;28;20202;-78
2023/04/18 02:13:14;;;;;;;7.80;5.30;;;7.80;99.90;;;;;;5037632;28;20311;-80
2023/04/18 02:15:43;;;;;;;7.43;5.30;;;7.80;99.90;;;;;;5037825;28;20202;-79
2023/04/18 02:18:10;;;;;;;6.40;5.33;;;7.80;99.90;;;;;;5035033;28;20172;-79
2023/04/18 02:20:35;;;;;;;7.97;5.47;;;7.70;99.90;;;;;;5036233;28;20257;-79
2023/04/18 02:23:02;;;;;;;8.20;5.87;;;7.70;99.90;;;;;;5036778;28;20647;-79
2023/04/18 02:25:28;;;;;;;10.93;6.00;;;7.70;99.90;;;;;;5036738;28;20179;-80
2023/04/18 02:27:54;;;;;;;7.53;5.73;;;7.70;99.90;;;;;;5034841;28;20554;-79
2023/04/18 02:30:20;;;;;;;10.80;5.57;;;7.60;99.90;;;;;;5037739;28;20243;-80
2023/04/18 02:32:46;;;;;;;6.23;5.07;;;7.60;99.90;;;;;;5036596;28;20222;-79
2023/04/18 02:35:12;;;;;;;7.47;5.83;;;7.60;99.90;;;;;;5036552;28;20579;-80
2023/04/18 02:37:38;;;;;;;7.53;5.50;;;7.60;99.90;;;;;;5035333;28;20180;-79
2023/04/18 02:40:04;;;;;;;5.73;4.83;;;7.50;99.90;;;;;;5037249;28;20168;-79
2023/04/18 02:42:30;;;;;;;6.83;5.60;;;7.50;99.90;;;;;;5037185;28;20179;-80
2023/04/18 02:44:56;;;;;;;8.97;5.23;;;7.50;99.90;;;;;;5037110;28;20191;-79
2023/04/18 02:47:21;;;;;;;5.77;4.97;;;7.50;99.90;;;;;;5039012;28;20667;-79
2023/04/18 02:49:47;;;;;;;10.37;5.63;;;7.50;99.90;;;;;;5038822;28;20175;-79
2023/04/18 02:52:12;;;;;;;6.00;5.13;;;7.50;99.90;;;;;;5040358;28;20204;-79
2023/04/18 02:54:38;;;;;;;6.70;5.27;;;7.50;99.90;;;;;;5040445;28;20195;-80
2023/04/18 02:57:04;;;;;;;7.70;5.40;;;7.40;99.90;;;;;;5040613;28;20702;-80
2023/04/18 02:59:29;;;;;;;5.43;4.53;;;7.40;99.90;;;;;;5040449;28;20168;-78
2023/04/18 03:01:55;;;;;;;7.53;4.80;;;7.40;99.90;;;;;;5041506;28;20173;-79
2023/04/18 03:04:20;;;;;;;6.23;4.43;;;7.40;99.90;;;;;;5039810;28;20192;-79
2023/04/18 03:06:47;;;;;;;5.50;4.53;;;7.30;99.90;;;;;;5040399;28;20550;-79
2023/04/18 03:09:13;;;;;;;6.80;4.90;;;7.30;99.90;;;;;;5038819;28;20184;-79
2023/04/18 03:11:38;;;;;;;5.83;4.57;;;7.30;99.90;;;;;;5040935;28;20369;-79
2023/04/18 03:14:04;;;;;;;7.17;4.73;;;7.30;99.90;;;;;;5040458;28;20196;-79
2023/04/18 03:16:30;;;;;;;5.23;4.53;;;7.30;99.90;;;;;;5040236;28;20165;-79
2023/04/18 03:18:55;;;;;;;6.47;5.07;;;7.30;99.90;;;;;;5040481;28;20187;-79
2023/04/18 03:21:21;;;;;;;6.00;4.80;;;7.30;99.90;;;;;;5039304;28;20593;-80
2023/04/18 03:23:46;;;;;;;6.00;4.67;;;7.20;99.90;;;;;;5038958;28;20214;-80
2023/04/18 03:26:12;;;;;;;7.03;4.27;;;7.20;99.90;;;;;;5041020;28;20192;-79
2023/04/18 03:28:38;;;;;;;7.77;4.87;;;7.20;99.90;;;;;;5039881;28;20184;-80
2023/04/18 03:31:04;;;;;;;7.53;4.73;;;7.10;99.90;;;;;;5040748;28;20172;-80
2023/04/18 03:33:29;;;;;;;6.97;4.77;;;7.10;99.90;;;;;;5039525;28;20568;-79
2023/04/18 03:35:55;;;;;;;7.10;4.47;;;7.10;99.90;;;;;;5040707;28;20180;-79
2023/04/18 03:38:21;;;;;;;7.87;4.77;;;7.10;99.90;;;;;;5039214;28;20667;-79
2023/04/18 03:40:46;;;;;;;6.43;4.43;;;7.10;99.90;;;;;;5040803;28;20186;-79
2023/04/18 03:43:12;;;;;;;5.63;4.47;;;7.00;99.90;;;;;;5038811;28;20180;-79
2023/04/18 03:45:37;;;;;;;6.97;5.03;;;7.10;99.90;;;;;;5040161;28;20346;-79
2023/04/18 03:48:03;;;;;;;5.27;4.57;;;7.00;99.90;;;;;;5039479;28;20223;-79
2023/04/18 03:50:29;;;;;;;6.43;4.67;;;7.00;99.90;;;;;;5039671;28;20176;-78
2023/04/18 03:52:54;;;;;;;6.27;4.37;;;6.90;99.90;;;;;;5040273;28;20651;-78
2023/04/18 03:55:20;;;;;;;6.13;4.50;;;6.90;99.90;;;;;;5038341;28;20202;-80
2023/04/18 03:57:46;;;;;;;6.47;4.70;;;6.90;99.90;;;;;;5037493;28;20289;-79
2023/04/18 04:00:12;;;;;;;6.00;5.33;;;6.90;99.90;;;;;;5038598;28;20636;-79
2023/04/18 04:02:38;;;;;;;6.50;5.27;;;6.90;99.90;;;;;;5037346;28;20255;-80
2023/04/18 04:05:04;;;;;;;5.87;5.00;;;6.80;99.90;;;;;;5039447;28;20242;-79
2023/04/18 04:07:30;;;;;;;6.63;4.93;;;6.90;99.90;;;;;;5038388;28;20172;-80
2023/04/18 04:09:59;;;;;;;6.10;4.97;;;6.80;99.90;;;;;;5039543;28;20200;-79
2023/04/18 04:12:25;;;;;;;5.53;4.47;;;6.90;99.90;;;;;;5037737;28;20215;-79
2023/04/18 04:14:51;;;;;;;5.77;4.50;;;6.80;99.90;;;;;;5037241;28;20218;-79
2023/04/18 04:17:16;;;;;;;6.33;4.43;;;6.80;99.90;;;;;;5036856;28;20168;-79
2023/04/18 04:19:42;;;;;;;5.77;4.57;;;6.80;99.90;;;;;;5037183;28;20267;-79
2023/04/18 04:22:07;;;;;;;12.60;5.20;;;6.80;99.90;;;;;;5039048;28;20189;-79
2023/04/18 04:24:34;;;;;;;6.70;5.07;;;6.80;99.90;;;;;;5039031;28;20196;-79
2023/04/18 04:27:00;;;;;;;5.50;4.83;;;6.80;99.90;;;;;;5039249;28;20255;-80
2023/04/18 04:29:27;;;;;;;6.07;4.77;;;6.70;99.90;;;;;;5039286;28;20204;-78
2023/04/18 04:31:53;;;;;;;7.57;4.67;;;6.80;99.90;;;;;;5038956;28;20230;-79
2023/04/18 04:34:19;;;;;;;6.10;4.80;;;6.80;99.90;;;;;;5038917;28;20188;-80
2023/04/18 04:36:45;;;;;;;6.87;5.47;;;6.80;99.90;;;;;;5037621;28;20177;-80
2023/04/18 04:39:11;;;;;;;5.53;4.77;;;6.80;99.90;;;;;;5039325;28;20647;-79
2023/04/18 04:41:38;;;;;;;6.97;5.10;;;6.80;99.90;;;;;;5037507;28;20176;-80
2023/04/18 04:44:04;;;;;;;7.77;5.40;;;6.80;99.90;;;;;;5038815;28;20196;-79
2023/04/18 04:46:30;;;;;;;6.30;5.30;;;6.80;99.90;;;;;;5039791;28;20165;-80
2023/04/18 04:48:56;;;;;;;8.33;5.57;;;6.80;99.90;;;;;;5038256;28;20253;-80
2023/04/18 04:51:22;;;;;;;7.60;5.80;;;6.80;99.90;;;;;;5039060;28;20168;-79
2023/04/18 04:53:47;;;;;;;7.83;5.97;;;6.90;99.90;;;;;;5038970;28;20734;-79
2023/04/18 04:56:13;;;;;;;6.13;5.40;;;6.90;99.90;;;;;;5037384;28;20168;-80
2023/04/18 04:58:39;;;;;;;6.80;5.53;;;6.90;99.90;;;;;;5037859;28;20168;-79
2023/04/18 05:01:06;;;;;;;7.27;6.03;;;6.90;99.90;;;;;;5037777;28;20173;-78
2023/04/18 05:03:32;;;;;;;8.03;6.40;;;6.90;99.90;;;;;;5038896;28;20255;-80
2023/04/18 05:05:58;;;;;;;7.53;6.13;;;7.00;99.90;;;;;;5039262;28;20199;-79
2023/04/18 05:08:24;;;;;;;6.97;6.10;;;7.00;99.90;;;;;;5039195;28;20187;-79
2023/04/18 05:10:49;;;;;;;8.17;6.70;;;7.00;99.90;;;;;;5036496;28;20188;-79
2023/04/18 05:13:15;;;;;;;7.20;6.20;;;7.00;99.90;;;;;;5037521;28;20206;-77
2023/04/18 05:15:41;;;;;;;9.60;7.47;;;7.10;99.90;;;;;;5036285;28;20247;-78
2023/04/18 05:18:06;;;;;;;9.00;7.17;;;7.10;99.90;;;;;;5036037;28;20172;-78
2023/04/18 05:20:32;;;;;;;8.20;6.80;;;7.20;99.90;;;;;;5036304;28;20207;-79
2023/04/18 05:22:57;;;;;;;8.10;6.80;;;7.20;99.90;;;;;;5038606;28;20180;-79
2023/04/18 05:25:23;;;;;;;8.63;7.07;;;7.20;99.90;;;;;;5038179;28;20200;-79
2023/04/18 05:27:49;;;;;;;9.53;7.70;;;7.30;99.90;;;;;;5036775;28;20180;-79
2023/04/18 05:30:14;;;;;;;8.17;7.07;;;7.30;99.90;;;;;;5037952;28;20176;-80
2023/04/18 05:32:40;;;;;;;10.17;7.37;;;7.40;99.90;;;;;;5037066;28;20211;-81
2023/04/18 05:35:06;;;;;;;9.73;7.23;;;7.40;99.90;;;;;;5035409;28;20200;-80
2023/04/18 05:37:32;;;;;;;11.17;6.90;;;7.50;99.90;;;;;;5036137;28;20593;-81
2023/04/18 05:39:58;;;;;;;8.90;7.13;;;7.50;99.90;;;;;;5039140;28;20183;-80
2023/04/18 05:42:24;;;;;;;14.40;7.77;;;7.50;99.90;;;;;;5038862;28;20184;-80
2023/04/18 05:44:50;;;;;;;9.37;7.87;;;7.50;99.90;;;;;;5038732;28;20242;-80
2023/04/18 05:47:16;;;;;;;9.37;8.37;;;7.60;99.90;;;;;;5037566;28;20188;-80
2023/04/18 05:49:41;;;;;;;11.10;7.90;;;7.70;99.90;;;;;;5043488;28;20168;-80
2023/04/18 05:52:07;;;;;;;11.80;8.37;;;7.70;99.90;;;;;;5053624;28;20207;-80
2023/04/18 05:54:32;;;;;;;9.53;7.73;;;7.80;99.90;;;;;;5051792;28;20226;-80
2023/04/18 05:56:59;;;;;;;9.97;7.80;;;7.80;99.90;;;;;;5039901;28;20176;-81
2023/04/18 05:59:25;;;;;;;10.63;7.77;;;7.80;99.90;;;;;;5037587;28;20248;-81
2023/04/18 06:01:51;;;;;;;9.30;7.33;;;7.90;99.90;;;;;;5038687;28;20196;-80
2023/04/18 06:04:18;;;;;;;11.20;7.20;;;8.00;99.90;;;;;;5038432;28;20587;-80
2023/04/18 06:06:44;;;;;;;7.83;6.13;;;8.00;99.90;;;;;;5037724;28;20173;-81
2023/04/18 06:09:09;;;;;;;9.97;7.17;;;8.00;99.90;;;;;;5038515;28;20168;-80
2023/04/18 06:11:35;;;;;;;9.17;6.70;;;8.00;99.90;;;;;;5038342;28;20188;-80
2023/04/18 06:14:01;;;;;;;10.10;7.07;;;8.10;99.90;;;;;;5037930;28;20212;-80
2023/04/18 06:16:28;;;;;;;7.67;6.43;;;8.10;99.90;;;;;;5037008;28;20172;-80
2023/04/18 06:18:54;;;;;;;8.57;6.93;;;8.20;99.90;;;;;;5039074;28;20551;-81
2023/04/18 06:21:20;;;;;;;9.33;7.07;;;8.30;99.90;;;;;;5037394;28;20175;-80
2023/04/18 06:23:46;;;;;;;8.60;7.07;;;8.30;99.90;;;;;;5037424;28;20204;-81
2023/04/18 06:26:12;;;;;;;8.83;7.40;;;8.40;99.90;;;;;;5037028;28;20186;-81
2023/04/18 06:28:38;;;;;;;8.37;6.53;;;8.40;99.90;;;;;;5037918;28;20184;-80
2023/04/18 06:31:03;;;;;;;8.67;6.67;;;8.50;99.90;;;;;;5036739;28;20211;-80
2023/04/18 06:33:29;;;;;;;7.53;6.67;;;8.60;99.90;;;;;;5037624;28;20207;-80
2023/04/18 06:35:55;;;;;;;9.53;7.10;;;8.60;99.90;;;;;;5038966;28;20179;-81
2023/04/18 06:38:21;;;;;;;8.00;6.97;;;8.70;99.90;;;;;;5039280;28;20169;-80
2023/04/18 06:40:47;;;;;;;8.47;7.37;;;8.80;99.90;;;;;;5037573;28;20172;-80
2023/04/18 06:43:12;;;;;;;7.60;6.57;;;8.80;99.90;;;;;;5038311;28;20247;-80
2023/04/18 06:45:38;;;;;;;8.50;6.50;;;8.80;99.90;;;;;;5037335;28;20179;-80
2023/04/18 06:48:03;;;;;;;7.03;6.20;;;8.90;99.90;;;;;;5038728;28;20211;-79
2023/04/18 06:50:29;;;;;;;8.67;7.23;;;8.90;99.90;;;;;;5038234;28;20234;-80
2023/04/18 06:52:55;;;;;;;10.63;7.47;;;9.00;99.90;;;;;;5038022;28;20196;-80
2023/04/18 06:55:21;;;;;;;9.13;6.70;;;9.00;99.90;;;;;;5038210;28;20579;-80
2023/04/18 06:57:46;;;;;;;11.97;7.63;;;9.00;99.90;;;;;;5036431;28;20542;-82
2023/04/18 07:00:12;;;;;;;8.40;6.50;;;9.10;99.90;;;;;;5038214;28;20173;-81
2023/04/18 07:02:38;;;;;;;8.87;7.03;;;9.10;99.90;;;;;;5037918;28;20176;-81
2023/04/18 07:05:05;;;;;;;8.50;6.97;;;9.10;99.90;;;;;;5038343;28;20255;-80
2023/04/18 07:07:31;;;;;;;8.63;7.07;;;9.00;99.90;;;;;;5042926;28;20160;-81
2023/04/18 07:09:57;;;;;;;7.63;6.57;;;9.10;99.90;;;;;;5052629;28;20176;-81
2023/04/18 07:12:23;;;;;;;8.60;7.57;;;9.10;99.90;;;;;;5050260;28;20223;-80
2023/04/18 07:14:49;;;;;;;9.00;7.13;;;9.00;99.90;;;;;;5049661;28;20192;-81
2023/04/18 07:17:15;;;;;;;10.13;7.27;;;9.00;99.90;;;;;;5051424;28;20191;-79
2023/04/18 07:19:40;;;;;;;9.53;7.47;;;9.00;99.90;;;;;;5043041;28;20180;-81
2023/04/18 07:22:06;;;;;;;8.50;7.50;;;9.00;99.90;;;;;;5039316;28;20187;-77
2023/04/18 07:24:31;;;;;;;10.47;7.63;;;9.00;99.90;;;;;;5037915;28;20668;-81
2023/04/18 07:26:57;;;;;;;8.37;6.90;;;9.00;99.90;;;;;;5039135;28;20188;-79
2023/04/18 07:29:22;;;;;;;8.73;7.13;;;9.10;99.90;;;;;;5038699;28;20255;-80
2023/04/18 07:31:48;;;;;;;8.20;7.10;;;9.10;99.90;;;;;;5038348;28;20176;-81
2023/04/18 07:34:14;;;;;;;8.40;7.33;;;9.20;99.90;;;;;;5041737;28;20210;-80
2023/04/18 07:36:40;;;;;;;10.63;7.60;;;9.30;99.90;;;;;;5042034;28;20259;-80
2023/04/18 07:39:06;;;;;;;8.33;6.83;;;9.30;99.90;;;;;;5040496;28;20172;-80
2023/04/18 07:41:32;;;;;;;8.93;7.07;;;9.20;99.90;;;;;;5041913;28;20168;-79
2023/04/18 07:43:59;;;;;;;8.30;6.43;;;9.40;99.90;;;;;;5040532;28;20239;-81
2023/04/18 07:46:24;;;;;;;8.80;7.17;;;9.40;99.90;;;;;;5040081;28;20172;-80
2023/04/18 07:48:50;;;;;;;7.60;6.63;;;9.40;99.90;;;;;;5039972;28;20180;-82
2023/04/18 07:51:15;;;;;;;8.13;6.50;;;9.50;99.90;;;;;;5040145;28;20187;-82
2023/04/18 07:53:42;;;;;;;10.87;7.43;;;9.60;99.90;;;;;;5040161;28;20207;-81
2023/04/18 07:56:08;;;;;;;11.77;7.67;;;9.60;99.90;;;;;;5041438;28;20168;-82
2023/04/18 07:58:34;;;;;;;9.03;6.40;;;9.60;99.90;;;;;;5040446;28;20241;-82
2023/04/18 08:00:59;;;;;;;8.10;7.07;;;9.60;99.90;;;;;;5040362;28;20176;-79
2023/04/18 08:03:26;;;;;;;9.10;7.23;;;9.70;99.90;;;;;;5043069;28;20188;-79
2023/04/18 08:05:52;;;;;;;9.80;6.47;;;9.70;99.90;;;;;;5040149;28;20183;-79
2023/04/18 08:08:17;;;;;;;10.60;8.03;;;9.70;99.90;;;;;;5038305;28;20230;-80
2023/04/18 08:10:43;;;;;;;10.13;6.70;;;9.60;99.90;;;;;;5038725;28;20184;-80
2023/04/18 08:13:11;;;;;;;9.77;8.23;;;9.70;99.90;;;;;;5038361;28;20663;-77
2023/04/18 08:15:37;;;;;;;10.47;7.27;;;9.70;99.90;;;;;;5037361;28;20169;-77
2023/04/18 08:18:03;;;;;;;11.90;7.40;;;9.70;99.90;;;;;;5037875;28;20180;-79
2023/04/18 08:20:29;;;;;;;9.00;6.73;;;9.70;99.90;;;;;;5039630;28;20724;-79
2023/04/18 08:22:55;;;;;;;9.10;7.93;;;9.80;99.90;;;;;;5041201;28;20183;-81
2023/04/18 08:25:20;;;;;;;8.57;7.07;;;9.90;99.90;;;;;;5038958;28;20202;-80
2023/04/18 08:27:46;;;;;;;8.07;6.93;;;9.80;99.90;;;;;;5040361;28;20172;-79
2023/04/18 08:30:12;;;;;;;11.03;8.10;;;9.90;99.90;;;;;;5041147;28;20643;-79
2023/04/18 08:32:37;;;;;;;9.03;7.30;;;9.90;99.90;;;;;;5043046;28;20220;-79
2023/04/18 08:35:03;;;;;;;10.47;8.00;;;9.90;99.90;;;;;;5057141;28;20192;-80
2023/04/18 08:37:30;;;;;;;9.43;7.60;;;10.00;99.90;;;;;;5055199;28;20191;-80
2023/04/18 08:39:55;;;;;;;7.63;6.83;;;10.00;99.90;;;;;;5045552;28;20177;-83
2023/04/18 08:42:22;;;;;;;9.70;7.90;;;10.00;99.90;;;;;;5040665;28;20547;-80
2023/04/18 08:44:48;;;;;;;9.50;7.50;;;10.10;99.90;;;;;;5038047;28;20200;-80
2023/04/18 08:47:14;;;;;;;9.17;7.33;;;10.20;99.90;;;;;;5038215;28;20187;-79
2023/04/18 08:49:44;;;;;;;10.33;7.67;;;10.30;99.90;;;;;;5037862;28;20262;-79
2023/04/18 08:52:12;;;;;;;9.57;7.47;;;10.30;99.90;;;;;;5037642;28;20289;-79
2023/04/18 08:54:41;;;;;;;9.90;7.60;;;10.40;99.90;;;;;;5037573;28;20192;-79
2023/04/18 08:57:15;;;;;;;9.40;6.83;;;10.50;99.90;;;;;;5037870;28;20702;-79
2023/04/18 08:59:44;;;;;;;9.47;7.57;;;10.40;99.90;;;;;;5036610;28;20175;-79
2023/04/18 09:02:11;;;;;;;10.53;7.70;;;10.40;99.90;;;;;;5037045;28;20195;-79
2023/04/18 09:04:38;;;;;;;8.13;7.07;;;10.40;99.90;;;;;;5064174;28;20198;-79
2023/04/18 09:07:09;;;;;;;9.83;8.03;;;10.40;99.90;;;;;;5075465;28;20262;-81
2023/04/18 09:09:52;;;;;;;9.87;7.97;;;10.40;99.90;;;;;;5076931;28;20538;-78
2023/04/18 09:12:24;;;;;;;9.17;7.27;;;10.30;99.90;;;;;;5078494;28;20690;-81
2023/04/18 09:14:53;;;;;;;11.67;7.83;;;10.30;99.90;;;;;;5078703;28;20201;-80
2023/04/18 09:17:36;;;;;;;10.40;8.03;;;10.30;99.90;;;;;;5079447;28;20194;-80
2023/04/18 09:20:04;;;;;;;10.07;8.00;;;10.20;99.90;;;;;;5078936;28;20175;-81
2023/04/18 09:22:50;;;;;;;10.10;7.80;;;10.20;99.90;;;;;;5079321;28;20175;-78
2023/04/18 09:25:36;;;;;;;10.23;8.07;;;10.20;99.90;;;;;;5075612;28;20694;-78
2023/04/18 09:28:03;;;;;;;9.70;7.77;;;10.20;99.90;;;;;;5077456;28;20292;-78
2023/04/18 09:30:35;;;;;;;10.70;7.97;;;10.10;99.90;;;;;;5076090;28;20265;-78
2023/04/18 09:33:02;;;;;;;11.30;8.87;;;10.10;99.90;;;;;;5075784;28;20195;-78
2023/04/18 09:35:28;;;;;;;10.30;8.20;;;10.20;99.90;;;;;;5077774;28;20194;-79
2023/04/18 09:37:54;;;;;;;12.10;8.23;;;10.20;99.90;;;;;;5077674;28;20167;-78
2023/04/18 09:40:20;;;;;;;12.03;8.57;;;10.10;99.90;;;;;;5075898;28;20179;-78
2023/04/18 09:42:49;;;;;;;10.37;8.37;;;10.20;99.90;;;;;;5077419;28;20236;-79
2023/04/18 09:45:15;;;;;;;11.77;7.47;;;10.10;99.90;;;;;;5077304;28;20197;-78
2023/04/18 09:47:40;;;;;;;10.23;7.77;;;10.20;99.90;;;;;;5075970;28;20265;-79
2023/04/18 09:50:08;;;;;;;12.93;7.70;;;10.20;99.90;;;;;;5076813;28;20195;-78
2023/04/18 09:52:38;;;;;;;12.57;7.77;;;10.20;99.90;;;;;;5077030;28;20214;-79
2023/04/18 09:55:06;;;;;;;11.30;8.00;;;10.30;99.90;;;;;;5076851;28;20285;-79
2023/04/18 09:57:33;;;;;;;12.50;8.47;;;10.30;99.90;;;;;;5075596;28;20191;-78
2023/04/18 10:00:19;;;;;;;10.20;8.07;;;10.30;99.90;;;;;;5076046;28;20316;-78
2023/04/18 10:02:48;;;;;;;12.27;7.83;;;10.30;99.90;;;;;;5076132;28;20204;-79
2023/04/18 10:05:14;;;;;;;11.97;7.80;;;10.40;99.90;;;;;;5076591;28;20194;-78
2023/04/18 10:07:43;;;;;;;11.57;8.00;;;10.30;99.90;;;;;;5075973;28;20190;-79
2023/04/18 10:10:08;;;;;;;10.73;8.47;;;10.40;99.90;;;;;;5075854;28;20264;-79
2023/04/18 10:12:36;;;;;;;11.73;8.07;;;10.50;99.90;;;;;;5074734;28;20210;-78
2023/04/18 10:15:03;;;;;;;11.10;8.27;;;10.50;99.90;;;;;;5075490;28;20680;-79
2023/04/18 10:17:45;;;;;;;10.37;8.17;;;10.60;99.90;;;;;;5077504;28;20171;-79
2023/04/18 10:20:16;;;;;;;10.30;7.80;;;10.60;99.90;;;;;;5077358;28;20167;-79
2023/04/18 10:22:43;;;;;;;11.77;8.00;;;10.80;99.90;;;;;;5077080;28;20183;-79
2023/04/18 10:25:08;;;;;;;10.73;7.83;;;10.90;99.90;;;;;;5078068;28;20650;-79
2023/04/18 10:27:46;;;;;;;10.50;7.80;;;10.90;99.90;;;;;;5078966;28;20262;-79
2023/04/18 10:30:13;;;;;;;11.17;8.27;;;11.00;99.90;;;;;;5077409;28;20170;-79
2023/04/18 10:32:38;;;;;;;12.30;9.10;;;11.10;99.90;;;;;;5075879;28;20203;-79
2023/04/18 10:35:05;;;;;;;10.37;7.83;;;11.10;99.90;;;;;;5075807;28;20190;-80
2023/04/18 10:37:32;;;;;;;11.33;8.13;;;11.10;99.90;;;;;;5076063;28;20264;-79
2023/04/18 10:40:01;;;;;;;10.47;8.00;;;11.20;99.90;;;;;;5077408;28;20171;-79
2023/04/18 10:42:45;;;;;;;9.77;8.10;;;11.30;99.90;;;;;;5077469;28;20163;-79
2023/04/18 10:45:24;;;;;;;12.20;9.27;;;11.40;99.90;;;;;;5077413;28;20198;-80
2023/04/18 10:47:49;;;;;;;13.47;8.20;;;11.40;99.90;;;;;;5075756;28;20220;-79
2023/04/18 10:50:16;;;;;;;10.40;8.17;;;11.40;99.90;;;;;;5077096;28;20175;-79
2023/04/18 10:52:42;;;;;;;10.90;8.80;;;11.50;99.90;;;;;;5076771;28;20673;-79
2023/04/18 10:55:09;;;;;;;11.40;8.27;;;11.60;99.90;;;;;;5075521;28;20221;-79
2023/04/18 10:57:43;;;;;;;11.67;8.57;;;11.70;99.90;;;;;;5076206;28;20225;-79
2023/04/18 11:00:11;;;;;;;13.37;8.57;;;11.70;99.90;;;;;;5076341;28;20229;-78
2023/04/18 11:02:37;;;;;;;12.73;8.27;;;11.80;99.90;;;;;;5074727;28;20179;-79
2023/04/18 11:05:05;;;;;;;11.63;8.10;;;11.80;99.90;;;;;;5076329;28;20203;-79
2023/04/18 11:07:38;;;;;;;13.10;7.50;;;11.80;99.90;;;;;;5077901;28;20547;-81
2023/04/18 11:10:05;;;;;;;10.47;7.67;;;11.90;99.90;;;;;;5082919;28;20185;-78
2023/04/18 11:12:33;;;;;;;11.77;8.90;;;11.90;99.90;;;;;;5080564;28;20202;-79
2023/04/18 11:15:00;;;;;;;12.60;8.67;;;11.90;99.90;;;;;;5080275;28;20191;-79
2023/04/18 11:17:31;;;;;;;9.83;7.97;;;12.00;99.90;;;;;;5081259;28;20171;-79
2023/04/18 11:20:01;;;;;;;10.63;7.90;;;12.00;99.90;;;;;;5089065;28;20239;-79
2023/04/18 11:22:26;;;;;;;11.83;7.83;;;12.20;99.90;;;;;;5094919;28;20182;-80
2023/04/18 11:24:57;;;;;;;13.17;8.60;;;12.40;99.90;;;;;;5091434;28;20199;-79
2023/04/18 11:27:25;;;;;;;9.63;7.87;;;12.50;99.90;;;;;;5081688;28;20251;-79
2023/04/18 11:29:52;;;;;;;11.27;7.67;;;12.60;99.90;;;;;;5078442;28;20179;-79
2023/04/18 11:32:18;;;;;;;11.97;7.87;;;12.70;99.90;;;;;;5078991;28;20248;-81
2023/04/18 11:34:43;;;;;;;11.53;8.00;;;12.70;99.90;;;;;;5080391;28;20195;-80
2023/04/18 11:37:09;;;;;;;10.60;7.77;;;12.70;99.90;;;;;;5081161;28;20174;-80
2023/04/18 11:39:41;;;;;;;11.43;8.03;;;12.80;99.90;;;;;;5080141;28;20190;-80
2023/04/18 11:42:07;;;;;;;10.20;7.63;;;12.80;99.90;;;;;;5079119;28;20238;-80
2023/04/18 11:44:35;;;;;;;11.37;8.20;;;12.90;99.90;;;;;;5079321;28;20198;-81
2023/04/18 11:47:00;;;;;;;10.40;7.47;;;13.00;99.90;;;;;;5079923;28;20236;-80
2023/04/18 11:49:31;;;;;;;10.20;8.03;;;13.00;99.90;;;;;;5078814;28;20585;-79
2023/04/18 11:51:58;;;;;;;9.97;8.07;;;13.10;99.90;;;;;;5077930;28;20175;-78
2023/04/18 11:54:39;;;;;;;10.87;8.80;;;13.30;99.90;;;;;;5077842;28;20217;-79
2023/04/18 11:57:17;;;;;;;10.50;8.33;;;13.30;99.90;;;;;;5077756;28;20549;-79
2023/04/18 11:59:50;;;;;;;11.60;8.40;;;13.40;99.90;;;;;;5078080;28;20650;-80
2023/04/18 12:02:16;;;;;;;12.57;8.37;;;13.50;99.90;;;;;;5080698;28;20155;-80
2023/04/18 12:04:50;;;;;;;10.23;8.17;;;13.40;99.90;;;;;;5079761;28;20230;-79
2023/04/18 12:07:36;;;;;;;9.50;8.03;;;13.40;99.90;;;;;;5078929;28;20236;-80
2023/04/18 12:10:03;;;;;;;11.63;8.97;;;13.40;99.90;;;;;;5079146;28;20220;-79
2023/04/18 12:12:28;;;;;;;11.50;8.53;;;13.50;99.90;;;;;;5078318;28;20207;-79
2023/04/18 12:15:07;;;;;;;11.00;8.17;;;13.40;99.90;;;;;;5080183;28;20646;-79
2023/04/18 12:17:35;;;;;;;10.27;8.23;;;13.30;99.90;;;;;;5078251;28;20239;-79
2023/04/18 12:20:04;;;;;;;10.47;8.53;;;13.30;99.90;;;;;;5076790;28;20247;-81
2023/04/18 12:22:49;;;;;;;12.00;9.13;;;13.30;99.90;;;;;;5079831;28;20177;-79
2023/04/18 12:25:20;;;;;;;9.73;8.00;;;13.20;99.90;;;;;;5077975;28;20275;-80
2023/04/18 12:27:53;;;;;;;9.97;8.37;;;13.20;99.90;;;;;;5077552;28;20191;-79
2023/04/18 12:30:21;;;;;;;10.50;8.07;;;13.30;99.90;;;;;;5078919;28;20159;-79
2023/04/18 12:32:51;;;;;;;12.50;8.60;;;13.30;99.90;;;;;;5078696;28;20244;-80
2023/04/18 12:35:18;;;;;;;10.97;9.27;;;13.20;99.90;;;;;;5078128;28;20560;-79
2023/04/18 12:37:46;;;;;;;12.20;9.17;;;13.10;99.90;;;;;;5077857;28;20229;-79
2023/04/18 12:40:12;;;;;;;12.00;8.97;;;13.10;99.90;;;;;;5079567;28;20163;-79
2023/04/18 12:42:41;;;;;;;12.57;9.07;;;13.00;99.90;;;;;;5078864;28;20170;-79
2023/04/18 12:45:10;;;;;;;12.40;8.47;;;13.00;99.90;;;;;;5079533;28;20187;-79
2023/04/18 12:47:37;;;;;;;14.20;9.70;;;12.90;99.90;;;;;;5077712;28;20171;-80
2023/04/18 12:50:03;;;;;;;15.27;10.67;;;13.00;99.90;;;;;;5079632;28;20175;-78